Latest Weather Observations for Naracoorte

IDS60801

Issued at 3:41 pm CDT Saturday 10 December 2022 (issued every 10 minutes, with the page automatically refreshed every 10 minutes)

About weather observations | Map of weather stations | Latest weather observations for SA | Other Formats
Station Details ID: 026099 Name: NARACOORTE AERODROME Lat: -36.98 Lon: 140.73 Height: 49.72 m
Data from the previous 72 hours. | See also: Recent months at Naracoorte
Date/Time
CDT
Temp
°C
App
Temp
°C
Dew
Point
°C
Rel
Hum
%
Delta-T
°C
Wind Press
QNH
hPa
Press
MSL
hPa
Rain since
9am
mm
Dir  Spd
km/h
Gust
km/h
Spd
kts
Gust
kts
10/03:30pm 24.9 21.2 6.1 30 9.7 NE 15 20 8 11 1009.9 1009.8 0.0
10/03:00pm 24.6 22.6 7.3 33 9.1 ENE 7 11 4 6 1010.5 1010.4 0.0
10/02:30pm 24.2 21.3 6.5 32 9.2 NE 11 15 6 8 1010.3 1010.2 0.0
10/02:00pm 24.3 21.1 5.1 29 9.7 NE 11 17 6 9 1010.7 1010.6 0.0
10/01:30pm 24.5 19.9 3.8 26 10.2 NNE 17 22 9 12 1011.0 1010.9 0.0
10/01:00pm 26.5 21.4 4.3 24 11.2 NNE 20 28 11 15 1011.1 1011.0 0.0
10/12:30pm 26.6 22.2 5.0 25 11.0 NNE 17 26 9 14 1011.3 1011.2 0.0
10/12:00pm 25.6 21.5 6.3 29 10.0 NNE 17 24 9 13 1012.0 1011.9 0.0
10/11:30am 24.1 19.3 4.5 28 9.8 NNE 19 26 10 14 1012.5 1012.4 0.0
10/11:00am 23.2 18.3 5.2 31 9.0 NNE 20 28 11 15 1012.8 1012.7 0.0
10/10:30am 22.8 17.9 7.0 36 8.2 NE 22 28 12 15 1013.3 1013.2 0.0
10/10:00am 21.6 17.1 5.9 36 7.9 NE 19 26 10 14 1013.8 1013.7 0.0
10/09:30am 19.8 15.4 6.5 42 6.7 NNE 19 28 10 15 1014.4 1014.3 0.0
10/09:00am 17.9 13.3 6.4 47 5.7 NNE 20 26 11 14 1014.9 1014.8 0.0
10/08:30am 17.0 12.5 6.8 51 5.1 NE 20 28 11 15 1014.7 1014.6 0.0
10/08:00am 15.5 9.7 6.2 54 4.5 NE 26 35 14 19 1014.4 1014.3 0.0
10/07:30am 14.0 8.2 6.4 60 3.7 ENE 26 32 14 17 1014.1 1014.0 0.0
10/07:00am 12.4 7.3 6.0 65 3.0 ENE 22 28 12 15 1014.2 1014.1 0.0
10/06:30am 11.0 6.2 5.5 69 2.5 ENE 20 28 11 15 1014.0 1013.9 0.0
10/06:00am 10.1 4.8 5.1 71 2.3 ENE 22 28 12 15 1014.0 1013.9 0.0
10/05:30am 10.1 4.9 5.5 73 2.1 ENE 22 28 12 15 1013.9 1013.8 0.0
10/05:00am 10.0 5.3 6.2 77 1.8 ENE 20 24 11 13 1013.7 1013.6 0.0
10/04:30am 10.1 6.1 6.8 80 1.6 ENE 17 22 9 12 1013.6 1013.5 0.0
10/04:00am 10.3 6.8 7.4 82 1.4 ENE 15 20 8 11 1013.6 1013.5 0.0
10/03:30am 10.5 6.7 7.7 83 1.3 ENE 17 20 9 11 1013.8 1013.7 0.0
10/03:00am 10.5 7.2 7.9 84 1.3 ENE 15 17 8 9 1013.9 1013.8 0.0
10/02:30am 10.6 7.7 8.0 84 1.3 E 13 19 7 10 1013.9 1013.8 0.0
10/02:00am 10.5 7.5 7.9 84 1.3 E 13 17 7 9 1014.0 1013.9 0.0
10/01:30am 10.9 7.2 8.0 82 1.4 E 17 22 9 12 1014.1 1014.0 0.0
10/01:00am 11.6 7.6 8.3 80 1.6 E 19 24 10 13 1014.4 1014.3 0.0
10/12:30am 12.0 8.1 8.5 79 1.7 E 19 22 10 12 1014.7 1014.6 0.0
10/12:00am 12.6 8.5 8.5 76 2.0 E 20 28 11 15 1014.8 1014.7 0.0
 
Date/Time
CDT
Temp
°C
App
Temp
°C
Dew
Point
°C
Rel
Hum
%
Delta-T
°C
Wind Press
QNH
hPa
Press
MSL
hPa
Rain since
9am
mm
Dir  Spd
km/h
Gust
km/h
Spd
kts
Gust
kts
09/11:30pm 13.0 8.9 8.7 75 2.2 ESE 20 28 11 15 1014.8 1014.7 0.0
09/11:00pm 13.2 9.2 8.1 71 2.5 ESE 19 24 10 13 1015.4 1015.3 0.0
09/10:30pm 12.1 8.8 6.6 69 2.6 E 13 15 7 8 1015.2 1015.1 0.0
09/10:00pm 12.6 9.7 6.6 67 2.9 E 11 13 6 7 1015.3 1015.2 0.0
09/09:30pm 12.9 10.0 6.3 64 3.1 E 11 13 6 7 1015.2 1015.1 0.0
09/09:00pm 13.4 10.4 6.0 61 3.5 ESE 11 11 6 6 1015.0 1014.9 0.0
09/08:30pm 15.4 12.7 5.6 52 4.7 ESE 9 11 5 6 1014.9 1014.8 0.0
09/08:00pm 18.1 15.3 5.0 42 6.3 E 9 13 5 7 1014.8 1014.7 0.0
09/07:30pm 19.7 15.9 3.8 35 7.6 E 13 17 7 9 1014.7 1014.6 0.0
09/07:00pm 20.7 16.9 5.9 38 7.4 E 15 20 8 11 1014.5 1014.4 0.0
09/06:30pm 21.9 18.1 5.8 35 8.1 SE 15 20 8 11 1014.4 1014.3 0.0
09/06:00pm 21.3 18.3 4.0 32 8.4 E 9 17 5 9 1014.4 1014.3 0.0
09/05:30pm 21.9 18.2 4.5 32 8.5 ESE 13 22 7 12 1014.5 1014.4 0.0
09/05:00pm 21.7 18.2 3.4 30 8.8 ESE 11 20 6 11 1015.2 1015.1 0.0
09/04:30pm 21.4 18.7 3.6 31 8.5 SE 7 19 4 10 1015.6 1015.5 0.0
09/04:00pm 22.4 18.9 5.4 33 8.5 ESE 13 20 7 11 1015.7 1015.6 0.0
09/03:30pm 21.1 17.9 3.3 31 8.5 E 9 19 5 10 1015.9 1015.8 0.0
09/03:00pm 21.5 17.6 5.4 35 8.0 ENE 15 24 8 13 1016.2 1016.1 0.0
09/02:30pm 21.2 17.6 5.1 35 7.9 E 13 22 7 12 1016.5 1016.4 0.0
09/02:00pm 19.9 16.3 3.2 33 7.9 SSE 11 19 6 10 1017.0 1016.8 0.0
09/01:30pm 19.2 16.1 3.8 36 7.3 SSW 9 15 5 8 1017.3 1017.1 0.0
09/01:00pm 18.8 16.0 3.4 36 7.2 ESE 7 17 4 9 1017.6 1017.4 0.0
09/12:30pm 19.0 16.1 4.7 39 6.9 SE 9 22 5 12 1018.2 1018.0 0.0
09/12:00pm 17.4 13.2 3.7 40 6.4 ESE 15 24 8 13 1018.2 1018.0 0.0
09/11:30am 16.8 11.7 4.2 43 5.9 E 20 28 11 15 1018.4 1018.2 0.0
09/11:00am 15.0 9.9 4.1 48 5.0 ESE 20 32 11 17 1018.3 1018.1 0.0
09/10:30am 17.0 11.4 5.6 47 5.5 E 24 32 13 17 1018.3 1018.1 0.0
09/10:00am 15.2 11.2 5.1 51 4.8 ESE 15 24 8 13 1019.0 1018.8 0.0
09/09:30am 14.3 9.4 4.9 53 4.4 ESE 20 26 11 14 1019.0 1018.8 0.0
09/09:00am 16.0 12.4 6.7 54 4.6 E 15 26 8 14 1019.4 1019.2 0.0
09/08:30am 12.1 10.2 7.6 74 2.2 NW 7 11 4 6 1020.2 1020.1 0.0
09/08:00am 9.8 8.4 7.4 85 1.1 SSE 4 6 2 3 1020.0 1019.9 0.0
09/07:30am 8.1 6.5 6.2 88 0.9 SSE 4 7 2 4 1019.5 1019.4 0.0
09/07:00am 7.0 5.7 5.9 93 0.5 SE 2 7 1 4 1019.2 1019.0 0.0
09/06:30am 4.4 3.0 3.7 95 0.3 CALM 0 0 0 0 1018.7 1018.5 0.0
09/06:00am 2.5 0.8 1.8 95 0.3 CALM 0 2 0 1 1018.3 1018.1 0.0
09/05:30am 1.9 -1.3 1.0 94 0.3 SE 7 9 4 5 1017.8 1017.6 0.0
09/05:00am 2.0 -0.2 1.1 94 0.3 SE 2 6 1 3 1017.7 1017.5 0.0
09/04:30am 2.3 -0.8 1.4 94 0.3 SE 7 9 4 5 1017.4 1017.2 0.0
09/04:00am 2.7 -0.1 2.0 95 0.3 SE 6 9 3 5 1017.4 1017.2 0.0
09/03:30am 2.0 -1.9 1.1 94 0.3 SSE 11 13 6 7 1017.6 1017.4 0.0
09/03:00am 2.0 -1.2 1.0 93 0.4 SSE 7 9 4 5 1018.1 1017.9 0.0
09/02:30am 2.3 -0.3 1.1 92 0.5 SSE 4 7 2 4 1018.4 1018.2 0.0
09/02:00am 2.8 -0.1 1.6 92 0.5 SSE 6 6 3 3 1018.7 1018.5 0.0
09/01:30am 3.0 0.1 1.7 91 0.5 SSE 6 7 3 4 1018.9 1018.7 0.0
09/01:00am 3.3 0.3 2.0 91 0.5 SSE 7 9 4 5 1019.1 1018.9 0.0
09/12:30am 4.0 1.3 2.5 90 0.6 SSE 6 7 3 4 1019.0 1018.8 0.0
09/12:00am 4.4 1.2 2.8 89 0.6 SSE 9 11 5 6 1019.3 1019.1 0.0
 
Date/Time
CDT
Temp
°C
App
Temp
°C
Dew
Point
°C
Rel
Hum
%
Delta-T
°C
Wind Press
QNH
hPa
Press
MSL
hPa
Rain since
9am
mm
Dir  Spd
km/h
Gust
km/h
Spd
kts
Gust
kts
08/11:30pm 4.7 1.4 2.7 87 0.8 S 9 11 5 6 1019.4 1019.2 0.0
08/11:00pm 5.8 2.3 3.6 86 0.9 S 11 13 6 7 1019.7 1019.6 0.0
08/10:30pm 7.0 3.2 4.0 81 1.3 S 13 13 7 7 1019.3 1019.1 0.0
08/10:00pm 8.2 4.1 4.2 76 1.7 S 15 17 8 9 1019.0 1018.8 0.0
08/09:30pm 8.7 5.0 4.3 74 1.9 S 13 17 7 9 1018.5 1018.3 0.0
08/09:00pm 9.7 5.6 4.5 70 2.3 SSE 15 19 8 10 1018.3 1018.1 0.0
08/08:30pm 11.0 6.2 4.9 66 2.8 S 19 24 10 13 1018.5 1018.3 0.0
08/08:00pm 12.2 6.5 4.7 60 3.4 S 24 30 13 16 1018.3 1018.1 0.0
08/07:30pm 14.0 8.7 3.2 48 4.8 SSE 20 26 11 14 1017.9 1017.7 0.0
08/07:00pm 15.1 8.3 3.3 45 5.4 SSE 28 33 15 18 1017.2 1017.0 0.0
08/06:30pm 15.9 9.8 2.7 41 6.0 S 24 32 13 17 1017.1 1016.9 0.0
08/06:00pm 15.3 9.3 3.5 45 5.4 S 24 30 13 16 1017.3 1017.1 0.0
08/05:30pm 15.5 9.3 4.3 47 5.2 S 26 35 14 19 1017.7 1017.5 0.0
08/05:00pm 15.6 9.0 4.3 47 5.3 S 28 35 15 19 1017.7 1017.5 0.0
08/04:30pm 16.2 9.5 3.6 43 5.8 S 28 37 15 20 1017.3 1017.1 0.0
08/04:00pm 16.5 10.4 2.9 40 6.2 S 24 32 13 17 1017.5 1017.3 0.0
08/03:30pm 16.9 10.8 2.9 39 6.4 S 24 35 13 19 1017.4 1017.2 0.0
08/03:00pm 16.8 10.6 2.0 37 6.6 S 24 33 13 18 1017.4 1017.2 0.0
08/02:30pm 17.6 12.1 4.2 41 6.3 SSE 22 32 12 17 1017.5 1017.3 0.0
08/02:00pm 15.7 8.8 4.4 47 5.3 SSE 30 41 16 22 1017.6 1017.4 0.0
08/01:30pm 17.3 11.0 1.7 35 7.0 SSE 24 37 13 20 1017.7 1017.5 0.0
08/01:00pm 16.8 10.9 1.7 36 6.7 S 22 30 12 16 1017.7 1017.5 0.0
08/12:30pm 16.8 10.5 1.7 36 6.7 SSE 24 33 13 18 1017.9 1017.7 0.0
08/12:00pm 16.3 10.0 1.6 37 6.5 SSE 24 33 13 18 1017.9 1017.7 0.0
08/11:30am 16.5 9.7 1.0 35 6.8 SSW 26 35 14 19 1017.9 1017.7 0.0
08/11:00am 16.7 10.1 2.0 37 6.6 SSW 26 35 14 19 1018.0 1017.8 0.0
08/10:30am 16.5 8.9 2.9 40 6.2 S 32 43 17 23 1018.0 1017.8 0.0
08/10:00am 14.5 7.3 3.0 46 5.2 SSW 30 39 16 21 1018.0 1017.8 0.0
08/09:30am 13.3 7.6 4.7 56 4.0 SW 24 32 13 17 1018.2 1018.0 0.0
08/09:00am 13.9 7.5 5.3 56 4.0 SW 28 39 15 21 1018.2 1018.0 0.0
08/08:30am 13.8 7.7 4.7 54 4.2 SW 26 35 14 19 1017.8 1017.6 0.0
08/08:00am 11.8 6.8 4.8 62 3.2 SW 20 28 11 15 1017.5 1017.3 0.0
08/07:30am 11.8 7.3 6.1 68 2.7 SW 19 26 10 14 1017.0 1016.8 0.0
08/07:00am 10.0 6.9 7.3 83 1.3 WSW 13 17 7 9 1016.4 1016.3 0.0
08/06:30am 8.0 5.1 6.6 91 0.6 WSW 11 13 6 7 1016.0 1015.9 0.0
08/06:00am 5.8 2.1 4.4 91 0.6 W 13 15 7 8 1015.8 1015.7 0.0
08/05:30am 5.7 2.3 4.2 90 0.6 W 11 15 6 8 1015.5 1015.4 0.0
08/05:00am 6.3 3.7 4.3 87 0.9 SW 7 9 4 5 1015.3 1015.2 0.0
08/04:30am 8.1 4.3 5.9 86 1.0 SW 15 19 8 10 1015.2 1015.1 0.0
08/04:00am 5.9 2.5 4.2 89 0.7 W 11 13 6 7 1015.1 1015.0 0.0
08/03:30am 6.5 3.2 4.8 89 0.7 W 11 15 6 8 1015.0 1014.9 0.0
08/03:00am 5.0 1.2 4.0 93 0.4 W 13 15 7 8 1015.1 1015.0 0.0
08/02:30am 4.7 0.8 3.4 91 0.5 W 13 15 7 8 1015.0 1014.9 0.0
08/02:00am 4.4 0.5 3.2 92 0.5 W 13 15 7 8 1015.1 1015.0 0.0
08/01:30am 4.4 0.8 3.2 92 0.5 W 11 13 6 7 1015.0 1014.9 0.0
08/01:00am 4.5 0.9 3.2 91 0.5 SW 11 13 6 7 1015.3 1015.2 0.0
08/12:30am 5.2 1.7 3.5 89 0.7 SW 11 11 6 6 1015.5 1015.4 0.0
08/12:00am 5.6 1.8 3.8 88 0.8 WSW 13 15 7 8 1015.5 1015.4 0.0
 
Date/Time
CDT
Temp
°C
App
Temp
°C
Dew
Point
°C
Rel
Hum
%
Delta-T
°C
Wind Press
QNH
hPa
Press
MSL
hPa
Rain since
9am
mm
Dir  Spd
km/h
Gust
km/h
Spd
kts
Gust
kts
07/11:30pm 5.7 2.2 3.7 87 0.8 WSW 11 13 6 7 1015.5 1015.4 0.0
07/11:00pm 7.0 4.0 4.0 81 1.3 SW 9 13 5 7 1015.4 1015.3 0.0
07/10:30pm 7.5 3.8 4.5 81 1.3 SW 13 17 7 9 1015.3 1015.2 0.0
07/10:00pm 7.1 3.3 3.7 79 1.5 SW 13 15 7 8 1014.9 1014.8 0.0
07/09:30pm 8.9 4.7 3.7 70 2.3 SW 15 19 8 10 1014.6 1014.5 0.0
07/09:00pm 10.4 4.5 3.7 63 2.9 SW 24 35 13 19 1014.2 1014.1 0.0
07/08:30pm 10.7 5.4 3.0 59 3.3 SW 20 32 11 17 1013.6 1013.5 0.0
07/08:00pm 12.0 5.2 3.3 55 3.9 SW 28 39 15 21 1013.1 1013.0 0.0
07/07:30pm 13.2 6.5 3.6 52 4.3 SSW 28 41 15 22 1012.5 1012.4 0.0
07/07:00pm 13.7 5.5 2.6 47 4.9 SW 35 46 19 25 1012.1 1012.0 0.0
07/06:30pm 15.3 6.1 1.1 38 6.2 SSW 39 54 21 29 1011.4 1011.3 0.0
07/06:16pm 15.5 6.6 3.3 44 5.6 SW 39 59 21 32 1011.1 1011.0 0.0
07/06:00pm 15.0 6.3 4.1 48 5.0 SW 39 54 21 29 1010.9 1010.8 0.0
07/05:30pm 14.9 7.7 7.5 61 3.7 SSW 35 50 19 27 1010.5 1010.4 0.0
07/05:00pm 14.1 8.0 9.9 76 2.2 SW 32 52 17 28 1010.4 1010.3 0.0
07/04:45pm 16.1 9.6 8.1 59 4.0 SW 32 52 17 28 1010.0 1009.9 0.0
07/04:30pm 15.5 7.8 8.7 64 3.5 SSW 39 54 21 29 1009.9 1009.8 0.0
07/04:13pm 15.5 8.8 8.3 62 3.6 SW 33 54 18 29 1009.6 1009.5 0.0
07/04:00pm 15.8 10.2 11.4 75 2.4 SSW 32 41 17 22 1009.6 1009.5 0.0
07/03:45pm 16.2 10.6 8.9 62 3.8 WSW 28 61 15 33 1009.4 1009.3 0.0

Other formats

Comma delimited format used in spreadsheet applications
http://www.bom.gov.au/fwo/IDS60801/IDS60801.94820.axf

JavaScript Object Notation format (JSON) in row-major order
http://www.bom.gov.au/fwo/IDS60801/IDS60801.94820.json

Data quality

Most of these data are generated automatically and are frequently updated. Quality checks on data are not normally performed. It is possible for incorrect values to appear. Refer to information at About Latest Weather Observations and please check the disclaimer before using these data.